sensor_id;sensor_type;location;lat;lon;timestamp;P1;durP1;ratioP1;P2;durP2;ratioP2
11006;SDS011;8186;57.652;11.968;2023-04-25T00:02:04;14.03;;;12.77;;
11006;SDS011;8186;57.652;11.968;2023-04-25T00:04:32;14.50;;;13.17;;
11006;SDS011;8186;57.652;11.968;2023-04-25T00:06:59;14.50;;;13.20;;
11006;SDS011;8186;57.652;11.968;2023-04-25T00:09:28;13.37;;;12.07;;
11006;SDS011;8186;57.652;11.968;2023-04-25T00:11:55;12.83;;;11.63;;
11006;SDS011;8186;57.652;11.968;2023-04-25T00:14:22;17.57;;;12.83;;
11006;SDS011;8186;57.652;11.968;2023-04-25T00:16:50;12.90;;;11.60;;
11006;SDS011;8186;57.652;11.968;2023-04-25T00:19:19;14.53;;;13.13;;
11006;SDS011;8186;57.652;11.968;2023-04-25T00:21:45;15.20;;;13.80;;
11006;SDS011;8186;57.652;11.968;2023-04-25T00:24:13;14.10;;;12.73;;
11006;SDS011;8186;57.652;11.968;2023-04-25T00:26:41;14.57;;;12.73;;
11006;SDS011;8186;57.652;11.968;2023-04-25T00:29:08;15.47;;;13.87;;
11006;SDS011;8186;57.652;11.968;2023-04-25T00:31:35;15.13;;;13.63;;
11006;SDS011;8186;57.652;11.968;2023-04-25T00:34:01;15.23;;;13.73;;
11006;SDS011;8186;57.652;11.968;2023-04-25T00:36:28;15.67;;;14.00;;
11006;SDS011;8186;57.652;11.968;2023-04-25T00:38:55;14.90;;;13.40;;
11006;SDS011;8186;57.652;11.968;2023-04-25T00:41:22;16.67;;;14.97;;
11006;SDS011;8186;57.652;11.968;2023-04-25T00:43:51;15.57;;;14.07;;
11006;SDS011;8186;57.652;11.968;2023-04-25T00:46:20;16.23;;;14.37;;
11006;SDS011;8186;57.652;11.968;2023-04-25T00:48:47;15.97;;;14.33;;
11006;SDS011;8186;57.652;11.968;2023-04-25T00:51:15;16.63;;;14.93;;
11006;SDS011;8186;57.652;11.968;2023-04-25T00:53:47;17.07;;;15.20;;
11006;SDS011;8186;57.652;11.968;2023-04-25T00:56:16;17.53;;;15.70;;
11006;SDS011;8186;57.652;11.968;2023-04-25T00:58:43;18.33;;;16.07;;
11006;SDS011;8186;57.652;11.968;2023-04-25T01:01:11;19.30;;;17.30;;
11006;SDS011;8186;57.652;11.968;2023-04-25T01:03:38;19.37;;;17.27;;
11006;SDS011;8186;57.652;11.968;2023-04-25T01:06:07;18.60;;;16.60;;
11006;SDS011;8186;57.652;11.968;2023-04-25T01:08:34;19.57;;;16.57;;
11006;SDS011;8186;57.652;11.968;2023-04-25T01:11:01;18.20;;;16.33;;
11006;SDS011;8186;57.652;11.968;2023-04-25T01:13:29;18.47;;;16.60;;
11006;SDS011;8186;57.652;11.968;2023-04-25T01:15:57;18.23;;;16.33;;
11006;SDS011;8186;57.652;11.968;2023-04-25T01:18:25;18.87;;;15.77;;
11006;SDS011;8186;57.652;11.968;2023-04-25T01:20:52;17.87;;;15.73;;
11006;SDS011;8186;57.652;11.968;2023-04-25T01:23:22;18.20;;;15.97;;
11006;SDS011;8186;57.652;11.968;2023-04-25T01:25:49;18.23;;;16.33;;
11006;SDS011;8186;57.652;11.968;2023-04-25T01:28:16;17.50;;;15.63;;
11006;SDS011;8186;57.652;11.968;2023-04-25T01:30:43;17.50;;;15.80;;
11006;SDS011;8186;57.652;11.968;2023-04-25T01:33:11;17.70;;;15.90;;
11006;SDS011;8186;57.652;11.968;2023-04-25T01:35:38;18.17;;;16.33;;
11006;SDS011;8186;57.652;11.968;2023-04-25T01:38:05;17.67;;;15.73;;
11006;SDS011;8186;57.652;11.968;2023-04-25T01:40:33;17.93;;;16.00;;
11006;SDS011;8186;57.652;11.968;2023-04-25T01:43:01;17.00;;;15.13;;
11006;SDS011;8186;57.652;11.968;2023-04-25T01:45:28;16.90;;;15.13;;
11006;SDS011;8186;57.652;11.968;2023-04-25T01:47:55;16.00;;;14.40;;
11006;SDS011;8186;57.652;11.968;2023-04-25T01:50:24;14.80;;;13.30;;
11006;SDS011;8186;57.652;11.968;2023-04-25T01:52:51;16.50;;;14.90;;
11006;SDS011;8186;57.652;11.968;2023-04-25T01:55:19;14.87;;;13.33;;
11006;SDS011;8186;57.652;11.968;2023-04-25T01:57:47;14.70;;;12.70;;
11006;SDS011;8186;57.652;11.968;2023-04-25T02:00:14;14.53;;;13.03;;
11006;SDS011;8186;57.652;11.968;2023-04-25T02:02:42;13.80;;;12.40;;
11006;SDS011;8186;57.652;11.968;2023-04-25T02:05:08;14.27;;;12.87;;
11006;SDS011;8186;57.652;11.968;2023-04-25T02:07:35;14.20;;;12.70;;
11006;SDS011;8186;57.652;11.968;2023-04-25T02:10:03;13.93;;;12.50;;
11006;SDS011;8186;57.652;11.968;2023-04-25T02:12:30;13.37;;;11.93;;
11006;SDS011;8186;57.652;11.968;2023-04-25T02:14:58;13.20;;;11.90;;
11006;SDS011;8186;57.652;11.968;2023-04-25T02:17:25;12.67;;;11.47;;
11006;SDS011;8186;57.652;11.968;2023-04-25T02:19:52;12.40;;;11.10;;
11006;SDS011;8186;57.652;11.968;2023-04-25T02:22:19;12.33;;;11.13;;
11006;SDS011;8186;57.652;11.968;2023-04-25T02:24:46;12.80;;;11.50;;
11006;SDS011;8186;57.652;11.968;2023-04-25T02:27:13;11.73;;;10.53;;
11006;SDS011;8186;57.652;11.968;2023-04-25T02:29:40;13.83;;;12.37;;
11006;SDS011;8186;57.652;11.968;2023-04-25T02:32:08;12.53;;;11.33;;
11006;SDS011;8186;57.652;11.968;2023-04-25T02:34:35;13.47;;;12.07;;
11006;SDS011;8186;57.652;11.968;2023-04-25T02:37:02;13.87;;;12.47;;
11006;SDS011;8186;57.652;11.968;2023-04-25T02:39:29;13.07;;;11.73;;
11006;SDS011;8186;57.652;11.968;2023-04-25T02:41:56;13.97;;;12.50;;
11006;SDS011;8186;57.652;11.968;2023-04-25T02:44:23;13.17;;;11.87;;
11006;SDS011;8186;57.652;11.968;2023-04-25T02:46:50;13.67;;;12.27;;
11006;SDS011;8186;57.652;11.968;2023-04-25T02:49:18;13.20;;;11.90;;
11006;SDS011;8186;57.652;11.968;2023-04-25T02:51:45;14.20;;;12.70;;
11006;SDS011;8186;57.652;11.968;2023-04-25T02:54:12;12.60;;;11.30;;
11006;SDS011;8186;57.652;11.968;2023-04-25T02:56:38;13.47;;;11.83;;
11006;SDS011;8186;57.652;11.968;2023-04-25T02:59:06;13.47;;;12.03;;
11006;SDS011;8186;57.652;11.968;2023-04-25T03:01:32;13.87;;;12.53;;
11006;SDS011;8186;57.652;11.968;2023-04-25T03:03:59;13.23;;;11.77;;
11006;SDS011;8186;57.652;11.968;2023-04-25T03:06:28;15.33;;;11.97;;
11006;SDS011;8186;57.652;11.968;2023-04-25T03:08:54;13.33;;;11.80;;
11006;SDS011;8186;57.652;11.968;2023-04-25T03:11:21;14.10;;;12.10;;
11006;SDS011;8186;57.652;11.968;2023-04-25T03:13:48;12.40;;;11.10;;
11006;SDS011;8186;57.652;11.968;2023-04-25T03:16:15;12.93;;;11.67;;
11006;SDS011;8186;57.652;11.968;2023-04-25T03:18:42;12.40;;;11.10;;
11006;SDS011;8186;57.652;11.968;2023-04-25T03:21:09;13.80;;;11.63;;
11006;SDS011;8186;57.652;11.968;2023-04-25T03:23:37;12.83;;;11.53;;
11006;SDS011;8186;57.652;11.968;2023-04-25T03:26:04;14.30;;;12.90;;
11006;SDS011;8186;57.652;11.968;2023-04-25T03:28:31;13.63;;;12.33;;
11006;SDS011;8186;57.652;11.968;2023-04-25T03:30:58;14.30;;;12.67;;
11006;SDS011;8186;57.652;11.968;2023-04-25T03:33:25;14.87;;;13.47;;
11006;SDS011;8186;57.652;11.968;2023-04-25T03:35:52;13.63;;;12.23;;
11006;SDS011;8186;57.652;11.968;2023-04-25T03:38:18;14.23;;;12.20;;
11006;SDS011;8186;57.652;11.968;2023-04-25T03:40:47;13.87;;;12.47;;
11006;SDS011;8186;57.652;11.968;2023-04-25T03:43:14;14.10;;;12.63;;
11006;SDS011;8186;57.652;11.968;2023-04-25T03:45:40;14.50;;;13.00;;
11006;SDS011;8186;57.652;11.968;2023-04-25T03:48:07;14.73;;;13.13;;
11006;SDS011;8186;57.652;11.968;2023-04-25T03:50:34;14.47;;;12.97;;
11006;SDS011;8186;57.652;11.968;2023-04-25T03:53:01;15.20;;;13.60;;
11006;SDS011;8186;57.652;11.968;2023-04-25T03:55:28;16.33;;;13.40;;
11006;SDS011;8186;57.652;11.968;2023-04-25T03:57:57;16.17;;;14.57;;
11006;SDS011;8186;57.652;11.968;2023-04-25T04:00:25;15.93;;;14.23;;
11006;SDS011;8186;57.652;11.968;2023-04-25T04:02:52;17.23;;;14.33;;
11006;SDS011;8186;57.652;11.968;2023-04-25T04:05:18;15.33;;;13.80;;
11006;SDS011;8186;57.652;11.968;2023-04-25T04:07:46;14.33;;;12.77;;
11006;SDS011;8186;57.652;11.968;2023-04-25T04:10:15;13.77;;;12.27;;
11006;SDS011;8186;57.652;11.968;2023-04-25T04:12:43;13.80;;;12.30;;
11006;SDS011;8186;57.652;11.968;2023-04-25T04:15:12;12.47;;;10.97;;
11006;SDS011;8186;57.652;11.968;2023-04-25T04:17:39;12.40;;;10.00;;
11006;SDS011;8186;57.652;11.968;2023-04-25T04:20:06;9.57;;;8.57;;
11006;SDS011;8186;57.652;11.968;2023-04-25T04:22:34;10.80;;;8.47;;
11006;SDS011;8186;57.652;11.968;2023-04-25T04:25:01;9.20;;;7.87;;
11006;SDS011;8186;57.652;11.968;2023-04-25T04:27:31;10.50;;;7.50;;
11006;SDS011;8186;57.652;11.968;2023-04-25T04:29:58;9.67;;;7.77;;
11006;SDS011;8186;57.652;11.968;2023-04-25T04:32:26;12.30;;;7.40;;
11006;SDS011;8186;57.652;11.968;2023-04-25T04:34:55;9.23;;;7.60;;
11006;SDS011;8186;57.652;11.968;2023-04-25T04:37:23;11.63;;;7.33;;
11006;SDS011;8186;57.652;11.968;2023-04-25T04:39:50;8.90;;;6.53;;
11006;SDS011;8186;57.652;11.968;2023-04-25T04:42:17;8.63;;;6.77;;
11006;SDS011;8186;57.652;11.968;2023-04-25T04:44:43;11.73;;;6.90;;
11006;SDS011;8186;57.652;11.968;2023-04-25T04:47:10;6.93;;;6.23;;
11006;SDS011;8186;57.652;11.968;2023-04-25T04:49:39;7.37;;;5.60;;
11006;SDS011;8186;57.652;11.968;2023-04-25T04:52:06;9.03;;;5.60;;
11006;SDS011;8186;57.652;11.968;2023-04-25T04:54:33;9.40;;;6.00;;
11006;SDS011;8186;57.652;11.968;2023-04-25T04:57:00;7.10;;;5.20;;
11006;SDS011;8186;57.652;11.968;2023-04-25T04:59:27;6.63;;;4.70;;
11006;SDS011;8186;57.652;11.968;2023-04-25T05:01:54;6.03;;;4.30;;
11006;SDS011;8186;57.652;11.968;2023-04-25T05:04:21;7.23;;;4.60;;
11006;SDS011;8186;57.652;11.968;2023-04-25T05:06:50;9.43;;;4.70;;
11006;SDS011;8186;57.652;11.968;2023-04-25T05:09:17;4.97;;;3.70;;
11006;SDS011;8186;57.652;11.968;2023-04-25T05:11:44;5.80;;;3.90;;
11006;SDS011;8186;57.652;11.968;2023-04-25T05:14:11;8.20;;;3.77;;
11006;SDS011;8186;57.652;11.968;2023-04-25T05:16:38;6.63;;;4.37;;
11006;SDS011;8186;57.652;11.968;2023-04-25T05:19:05;9.43;;;3.93;;
11006;SDS011;8186;57.652;11.968;2023-04-25T05:21:32;3.70;;;3.10;;
11006;SDS011;8186;57.652;11.968;2023-04-25T05:24:01;5.70;;;3.20;;
11006;SDS011;8186;57.652;11.968;2023-04-25T05:26:28;5.07;;;3.40;;
11006;SDS011;8186;57.652;11.968;2023-04-25T05:28:56;4.27;;;2.93;;
11006;SDS011;8186;57.652;11.968;2023-04-25T05:31:23;5.60;;;3.47;;
11006;SDS011;8186;57.652;11.968;2023-04-25T05:33:49;6.10;;;3.03;;
11006;SDS011;8186;57.652;11.968;2023-04-25T05:36:17;4.33;;;2.70;;
11006;SDS011;8186;57.652;11.968;2023-04-25T05:38:44;2.97;;;2.43;;
11006;SDS011;8186;57.652;11.968;2023-04-25T05:41:13;3.80;;;2.80;;
11006;SDS011;8186;57.652;11.968;2023-04-25T05:43:40;5.93;;;3.10;;
11006;SDS011;8186;57.652;11.968;2023-04-25T05:46:12;4.87;;;2.43;;
11006;SDS011;8186;57.652;11.968;2023-04-25T05:48:39;5.53;;;2.53;;
11006;SDS011;8186;57.652;11.968;2023-04-25T05:51:06;4.20;;;2.40;;
11006;SDS011;8186;57.652;11.968;2023-04-25T05:53:33;3.93;;;2.70;;
11006;SDS011;8186;57.652;11.968;2023-04-25T05:56:00;7.13;;;2.43;;
11006;SDS011;8186;57.652;11.968;2023-04-25T05:58:29;3.90;;;2.43;;
11006;SDS011;8186;57.652;11.968;2023-04-25T06:00:56;5.23;;;2.70;;
11006;SDS011;8186;57.652;11.968;2023-04-25T06:03:23;4.23;;;2.73;;
11006;SDS011;8186;57.652;11.968;2023-04-25T06:05:50;5.73;;;3.33;;
11006;SDS011;8186;57.652;11.968;2023-04-25T06:08:17;7.43;;;3.87;;
11006;SDS011;8186;57.652;11.968;2023-04-25T06:10:44;4.53;;;2.97;;
11006;SDS011;8186;57.652;11.968;2023-04-25T06:13:11;11.17;;;3.47;;
11006;SDS011;8186;57.652;11.968;2023-04-25T06:15:39;4.77;;;2.53;;
11006;SDS011;8186;57.652;11.968;2023-04-25T06:18:06;11.37;;;2.90;;
11006;SDS011;8186;57.652;11.968;2023-04-25T06:20:33;11.00;;;3.07;;
11006;SDS011;8186;57.652;11.968;2023-04-25T06:23:00;9.80;;;2.70;;
11006;SDS011;8186;57.652;11.968;2023-04-25T06:25:27;11.20;;;2.80;;
11006;SDS011;8186;57.652;11.968;2023-04-25T06:27:54;9.77;;;2.77;;
11006;SDS011;8186;57.652;11.968;2023-04-25T06:30:21;8.53;;;2.10;;
11006;SDS011;8186;57.652;11.968;2023-04-25T06:32:52;7.40;;;2.53;;
11006;SDS011;8186;57.652;11.968;2023-04-25T06:35:19;8.83;;;2.23;;
11006;SDS011;8186;57.652;11.968;2023-04-25T06:37:46;9.60;;;2.40;;
11006;SDS011;8186;57.652;11.968;2023-04-25T06:40:12;7.03;;;2.00;;
11006;SDS011;8186;57.652;11.968;2023-04-25T06:42:40;6.77;;;2.27;;
11006;SDS011;8186;57.652;11.968;2023-04-25T06:45:07;6.77;;;2.40;;
11006;SDS011;8186;57.652;11.968;2023-04-25T06:47:34;6.50;;;2.00;;
11006;SDS011;8186;57.652;11.968;2023-04-25T06:50:03;3.90;;;1.60;;
11006;SDS011;8186;57.652;11.968;2023-04-25T06:52:31;6.07;;;1.57;;
11006;SDS011;8186;57.652;11.968;2023-04-25T06:54:58;3.70;;;1.60;;
11006;SDS011;8186;57.652;11.968;2023-04-25T06:57:25;2.93;;;1.33;;
11006;SDS011;8186;57.652;11.968;2023-04-25T06:59:52;3.63;;;1.50;;
11006;SDS011;8186;57.652;11.968;2023-04-25T07:02:19;5.20;;;1.07;;
11006;SDS011;8186;57.652;11.968;2023-04-25T07:04:47;3.20;;;1.30;;
11006;SDS011;8186;57.652;11.968;2023-04-25T07:07:15;5.80;;;1.43;;
11006;SDS011;8186;57.652;11.968;2023-04-25T07:09:43;4.43;;;1.10;;
11006;SDS011;8186;57.652;11.968;2023-04-25T07:12:10;3.73;;;1.20;;
11006;SDS011;8186;57.652;11.968;2023-04-25T07:14:37;2.57;;;1.33;;
11006;SDS011;8186;57.652;11.968;2023-04-25T07:17:04;8.60;;;1.30;;
11006;SDS011;8186;57.652;11.968;2023-04-25T07:19:32;4.77;;;1.30;;
11006;SDS011;8186;57.652;11.968;2023-04-25T07:21:58;1.93;;;0.90;;
11006;SDS011;8186;57.652;11.968;2023-04-25T07:24:27;1.53;;;0.53;;
11006;SDS011;8186;57.652;11.968;2023-04-25T07:26:54;3.33;;;0.90;;
11006;SDS011;8186;57.652;11.968;2023-04-25T07:29:21;1.63;;;0.60;;
11006;SDS011;8186;57.652;11.968;2023-04-25T07:31:48;5.43;;;0.90;;
11006;SDS011;8186;57.652;11.968;2023-04-25T07:34:15;3.57;;;0.60;;
11006;SDS011;8186;57.652;11.968;2023-04-25T07:36:43;2.30;;;0.80;;
11006;SDS011;8186;57.652;11.968;2023-04-25T07:39:10;3.57;;;0.80;;
11006;SDS011;8186;57.652;11.968;2023-04-25T07:41:38;2.00;;;0.87;;
11006;SDS011;8186;57.652;11.968;2023-04-25T07:44:05;2.77;;;0.87;;
11006;SDS011;8186;57.652;11.968;2023-04-25T07:46:32;3.07;;;0.80;;
11006;SDS011;8186;57.652;11.968;2023-04-25T07:48:59;2.80;;;0.70;;
11006;SDS011;8186;57.652;11.968;2023-04-25T07:51:26;2.23;;;0.73;;
11006;SDS011;8186;57.652;11.968;2023-04-25T07:53:52;2.33;;;0.80;;
11006;SDS011;8186;57.652;11.968;2023-04-25T07:56:19;2.33;;;0.80;;
11006;SDS011;8186;57.652;11.968;2023-04-25T07:58:48;1.87;;;0.80;;
11006;SDS011;8186;57.652;11.968;2023-04-25T08:01:15;5.10;;;1.10;;
11006;SDS011;8186;57.652;11.968;2023-04-25T08:03:42;2.73;;;0.70;;
11006;SDS011;8186;57.652;11.968;2023-04-25T08:06:09;3.30;;;0.90;;
11006;SDS011;8186;57.652;11.968;2023-04-25T08:08:35;5.07;;;1.00;;
11006;SDS011;8186;57.652;11.968;2023-04-25T08:11:02;2.50;;;0.57;;
11006;SDS011;8186;57.652;11.968;2023-04-25T08:13:29;4.03;;;0.77;;
11006;SDS011;8186;57.652;11.968;2023-04-25T08:15:58;5.17;;;0.80;;
11006;SDS011;8186;57.652;11.968;2023-04-25T08:18:24;4.73;;;0.63;;
11006;SDS011;8186;57.652;11.968;2023-04-25T08:20:51;1.97;;;0.70;;
11006;SDS011;8186;57.652;11.968;2023-04-25T08:23:18;1.87;;;0.80;;
11006;SDS011;8186;57.652;11.968;2023-04-25T08:25:45;1.57;;;0.50;;
11006;SDS011;8186;57.652;11.968;2023-04-25T08:28:12;3.10;;;0.80;;
11006;SDS011;8186;57.652;11.968;2023-04-25T08:30:40;4.30;;;1.10;;
11006;SDS011;8186;57.652;11.968;2023-04-25T08:33:08;2.50;;;0.80;;
11006;SDS011;8186;57.652;11.968;2023-04-25T08:35:35;3.30;;;0.70;;
11006;SDS011;8186;57.652;11.968;2023-04-25T08:38:02;2.37;;;0.50;;
11006;SDS011;8186;57.652;11.968;2023-04-25T08:40:29;2.77;;;0.77;;
11006;SDS011;8186;57.652;11.968;2023-04-25T08:43:01;2.37;;;0.70;;
11006;SDS011;8186;57.652;11.968;2023-04-25T08:45:28;2.10;;;0.70;;
11006;SDS011;8186;57.652;11.968;2023-04-25T08:47:58;1.20;;;0.70;;
11006;SDS011;8186;57.652;11.968;2023-04-25T08:50:27;3.53;;;0.73;;
11006;SDS011;8186;57.652;11.968;2023-04-25T08:52:54;1.00;;;0.70;;
11006;SDS011;8186;57.652;11.968;2023-04-25T08:55:22;1.60;;;0.60;;
11006;SDS011;8186;57.652;11.968;2023-04-25T08:57:50;1.20;;;0.60;;
11006;SDS011;8186;57.652;11.968;2023-04-25T09:00:18;1.67;;;0.43;;
11006;SDS011;8186;57.652;11.968;2023-04-25T09:02:45;2.30;;;0.90;;
11006;SDS011;8186;57.652;11.968;2023-04-25T09:05:14;2.10;;;0.80;;
11006;SDS011;8186;57.652;11.968;2023-04-25T09:07:42;2.80;;;1.00;;
11006;SDS011;8186;57.652;11.968;2023-04-25T09:10:09;1.13;;;0.60;;
11006;SDS011;8186;57.652;11.968;2023-04-25T09:12:36;1.23;;;0.50;;
11006;SDS011;8186;57.652;11.968;2023-04-25T09:15:04;1.73;;;0.70;;
11006;SDS011;8186;57.652;11.968;2023-04-25T09:17:32;4.43;;;0.70;;
11006;SDS011;8186;57.652;11.968;2023-04-25T09:20:06;2.00;;;0.60;;
11006;SDS011;8186;57.652;11.968;2023-04-25T09:22:34;0.50;;;0.50;;
11006;SDS011;8186;57.652;11.968;2023-04-25T09:25:04;1.57;;;0.90;;
11006;SDS011;8186;57.652;11.968;2023-04-25T09:27:34;1.33;;;0.67;;
11006;SDS011;8186;57.652;11.968;2023-04-25T09:30:02;2.13;;;0.80;;
11006;SDS011;8186;57.652;11.968;2023-04-25T09:32:29;0.87;;;0.67;;
11006;SDS011;8186;57.652;11.968;2023-04-25T09:34:57;2.00;;;0.60;;
11006;SDS011;8186;57.652;11.968;2023-04-25T09:37:24;2.97;;;0.60;;
11006;SDS011;8186;57.652;11.968;2023-04-25T09:39:53;2.30;;;0.53;;
11006;SDS011;8186;57.652;11.968;2023-04-25T09:42:23;2.73;;;0.53;;
11006;SDS011;8186;57.652;11.968;2023-04-25T09:44:51;1.67;;;0.60;;
11006;SDS011;8186;57.652;11.968;2023-04-25T09:47:19;1.03;;;0.60;;
11006;SDS011;8186;57.652;11.968;2023-04-25T09:49:47;1.33;;;0.60;;
11006;SDS011;8186;57.652;11.968;2023-04-25T09:52:15;1.70;;;0.70;;
11006;SDS011;8186;57.652;11.968;2023-04-25T09:54:42;0.40;;;0.40;;
11006;SDS011;8186;57.652;11.968;2023-04-25T09:57:10;1.57;;;0.67;;
11006;SDS011;8186;57.652;11.968;2023-04-25T09:59:42;3.07;;;0.93;;
11006;SDS011;8186;57.652;11.968;2023-04-25T10:02:10;3.03;;;0.80;;
11006;SDS011;8186;57.652;11.968;2023-04-25T10:04:38;4.43;;;0.90;;
11006;SDS011;8186;57.652;11.968;2023-04-25T10:07:05;1.63;;;0.60;;
11006;SDS011;8186;57.652;11.968;2023-04-25T10:09:33;1.57;;;0.60;;
11006;SDS011;8186;57.652;11.968;2023-04-25T10:12:04;1.93;;;0.80;;
11006;SDS011;8186;57.652;11.968;2023-04-25T10:14:31;0.80;;;0.53;;
11006;SDS011;8186;57.652;11.968;2023-04-25T10:17:00;2.80;;;0.80;;
11006;SDS011;8186;57.652;11.968;2023-04-25T10:19:27;2.50;;;0.60;;
11006;SDS011;8186;57.652;11.968;2023-04-25T10:22:05;1.30;;;0.67;;
11006;SDS011;8186;57.652;11.968;2023-04-25T10:24:34;2.27;;;0.80;;
11006;SDS011;8186;57.652;11.968;2023-04-25T10:27:02;4.73;;;0.93;;
11006;SDS011;8186;57.652;11.968;2023-04-25T10:29:29;1.80;;;0.93;;
11006;SDS011;8186;57.652;11.968;2023-04-25T10:31:56;3.53;;;1.17;;
11006;SDS011;8186;57.652;11.968;2023-04-25T10:34:33;2.37;;;0.73;;
11006;SDS011;8186;57.652;11.968;2023-04-25T10:37:05;2.17;;;0.73;;
11006;SDS011;8186;57.652;11.968;2023-04-25T10:39:32;2.33;;;0.90;;
11006;SDS011;8186;57.652;11.968;2023-04-25T10:41:59;1.87;;;0.70;;
11006;SDS011;8186;57.652;11.968;2023-04-25T10:44:28;1.43;;;0.70;;
11006;SDS011;8186;57.652;11.968;2023-04-25T10:46:56;0.97;;;0.70;;
11006;SDS011;8186;57.652;11.968;2023-04-25T10:49:32;2.00;;;0.90;;
11006;SDS011;8186;57.652;11.968;2023-04-25T10:54:51;4.10;;;0.90;;
11006;SDS011;8186;57.652;11.968;2023-04-25T10:57:28;2.10;;;0.80;;
11006;SDS011;8186;57.652;11.968;2023-04-25T10:59:59;1.83;;;0.60;;
11006;SDS011;8186;57.652;11.968;2023-04-25T11:02:30;1.40;;;0.57;;
11006;SDS011;8186;57.652;11.968;2023-04-25T11:04:58;2.30;;;0.70;;
11006;SDS011;8186;57.652;11.968;2023-04-25T11:07:28;3.27;;;0.70;;
11006;SDS011;8186;57.652;11.968;2023-04-25T11:10:02;4.37;;;0.83;;
11006;SDS011;8186;57.652;11.968;2023-04-25T11:12:29;1.90;;;0.70;;
11006;SDS011;8186;57.652;11.968;2023-04-25T11:15:00;2.10;;;0.60;;
11006;SDS011;8186;57.652;11.968;2023-04-25T11:17:28;3.43;;;1.00;;
11006;SDS011;8186;57.652;11.968;2023-04-25T11:19:55;1.87;;;0.73;;
11006;SDS011;8186;57.652;11.968;2023-04-25T11:22:24;2.17;;;0.70;;
11006;SDS011;8186;57.652;11.968;2023-04-25T11:24:51;1.70;;;0.73;;
11006;SDS011;8186;57.652;11.968;2023-04-25T11:27:18;3.80;;;1.10;;
11006;SDS011;8186;57.652;11.968;2023-04-25T11:29:45;2.03;;;0.90;;
11006;SDS011;8186;57.652;11.968;2023-04-25T11:32:14;0.80;;;0.60;;
11006;SDS011;8186;57.652;11.968;2023-04-25T11:34:42;0.60;;;0.50;;
11006;SDS011;8186;57.652;11.968;2023-04-25T11:37:10;2.43;;;0.90;;
11006;SDS011;8186;57.652;11.968;2023-04-25T11:39:39;1.30;;;0.90;;
11006;SDS011;8186;57.652;11.968;2023-04-25T11:42:10;2.30;;;0.70;;
11006;SDS011;8186;57.652;11.968;2023-04-25T11:44:37;2.67;;;0.80;;
11006;SDS011;8186;57.652;11.968;2023-04-25T11:47:04;2.23;;;0.80;;
11006;SDS011;8186;57.652;11.968;2023-04-25T11:49:31;1.37;;;0.80;;
11006;SDS011;8186;57.652;11.968;2023-04-25T11:51:58;3.10;;;1.07;;
11006;SDS011;8186;57.652;11.968;2023-04-25T11:54:25;2.17;;;0.83;;
11006;SDS011;8186;57.652;11.968;2023-04-25T11:56:54;2.60;;;0.80;;
11006;SDS011;8186;57.652;11.968;2023-04-25T11:59:23;1.63;;;1.00;;
11006;SDS011;8186;57.652;11.968;2023-04-25T12:01:51;0.93;;;0.80;;
11006;SDS011;8186;57.652;11.968;2023-04-25T12:04:19;2.80;;;0.90;;
11006;SDS011;8186;57.652;11.968;2023-04-25T12:06:47;2.97;;;1.00;;
11006;SDS011;8186;57.652;11.968;2023-04-25T12:09:18;1.97;;;1.03;;
11006;SDS011;8186;57.652;11.968;2023-04-25T12:11:47;1.17;;;0.70;;
11006;SDS011;8186;57.652;11.968;2023-04-25T12:14:22;5.50;;;0.97;;
11006;SDS011;8186;57.652;11.968;2023-04-25T12:16:50;4.90;;;0.80;;
11006;SDS011;8186;57.652;11.968;2023-04-25T12:19:18;3.90;;;0.80;;
11006;SDS011;8186;57.652;11.968;2023-04-25T12:21:46;1.83;;;0.70;;
11006;SDS011;8186;57.652;11.968;2023-04-25T12:24:13;2.83;;;0.80;;
11006;SDS011;8186;57.652;11.968;2023-04-25T12:26:48;3.23;;;1.00;;
11006;SDS011;8186;57.652;11.968;2023-04-25T12:29:16;1.00;;;0.67;;
11006;SDS011;8186;57.652;11.968;2023-04-25T12:31:45;1.47;;;0.87;;
11006;SDS011;8186;57.652;11.968;2023-04-25T12:34:12;1.20;;;0.80;;
11006;SDS011;8186;57.652;11.968;2023-04-25T12:36:39;3.40;;;0.90;;
11006;SDS011;8186;57.652;11.968;2023-04-25T12:39:06;2.13;;;0.87;;
11006;SDS011;8186;57.652;11.968;2023-04-25T12:41:33;2.37;;;0.87;;
11006;SDS011;8186;57.652;11.968;2023-04-25T12:44:00;1.60;;;0.70;;
11006;SDS011;8186;57.652;11.968;2023-04-25T12:46:27;1.57;;;0.70;;
11006;SDS011;8186;57.652;11.968;2023-04-25T12:48:55;1.37;;;0.70;;
11006;SDS011;8186;57.652;11.968;2023-04-25T12:51:22;2.67;;;1.00;;
11006;SDS011;8186;57.652;11.968;2023-04-25T12:53:50;3.13;;;0.90;;
11006;SDS011;8186;57.652;11.968;2023-04-25T12:56:18;2.23;;;0.80;;
11006;SDS011;8186;57.652;11.968;2023-04-25T12:58:45;1.47;;;0.70;;
11006;SDS011;8186;57.652;11.968;2023-04-25T13:01:13;3.10;;;0.93;;
11006;SDS011;8186;57.652;11.968;2023-04-25T13:03:40;2.83;;;0.80;;
11006;SDS011;8186;57.652;11.968;2023-04-25T13:06:08;1.90;;;0.77;;
11006;SDS011;8186;57.652;11.968;2023-04-25T13:08:35;4.47;;;0.80;;
11006;SDS011;8186;57.652;11.968;2023-04-25T13:11:03;1.43;;;0.80;;
11006;SDS011;8186;57.652;11.968;2023-04-25T13:13:30;0.53;;;0.53;;
11006;SDS011;8186;57.652;11.968;2023-04-25T13:15:59;0.70;;;0.50;;
11006;SDS011;8186;57.652;11.968;2023-04-25T13:18:27;1.50;;;0.70;;
11006;SDS011;8186;57.652;11.968;2023-04-25T13:20:54;1.77;;;0.77;;
11006;SDS011;8186;57.652;11.968;2023-04-25T13:23:25;0.80;;;0.60;;
11006;SDS011;8186;57.652;11.968;2023-04-25T13:25:52;2.13;;;0.80;;
11006;SDS011;8186;57.652;11.968;2023-04-25T13:28:20;2.40;;;0.90;;
11006;SDS011;8186;57.652;11.968;2023-04-25T13:30:47;2.37;;;0.93;;
11006;SDS011;8186;57.652;11.968;2023-04-25T13:33:14;5.73;;;1.23;;
11006;SDS011;8186;57.652;11.968;2023-04-25T13:35:41;1.27;;;0.70;;
11006;SDS011;8186;57.652;11.968;2023-04-25T13:38:12;1.17;;;0.90;;
11006;SDS011;8186;57.652;11.968;2023-04-25T13:40:43;2.77;;;0.60;;
11006;SDS011;8186;57.652;11.968;2023-04-25T13:43:10;1.77;;;0.60;;
11006;SDS011;8186;57.652;11.968;2023-04-25T13:45:37;1.10;;;0.60;;
11006;SDS011;8186;57.652;11.968;2023-04-25T13:48:04;1.77;;;0.83;;
11006;SDS011;8186;57.652;11.968;2023-04-25T13:50:32;3.27;;;0.73;;
11006;SDS011;8186;57.652;11.968;2023-04-25T13:52:59;1.10;;;0.80;;
11006;SDS011;8186;57.652;11.968;2023-04-25T13:55:26;0.80;;;0.60;;
11006;SDS011;8186;57.652;11.968;2023-04-25T13:57:54;2.03;;;0.60;;
11006;SDS011;8186;57.652;11.968;2023-04-25T14:00:21;1.47;;;0.87;;
11006;SDS011;8186;57.652;11.968;2023-04-25T14:02:48;1.20;;;0.80;;
11006;SDS011;8186;57.652;11.968;2023-04-25T14:05:15;1.20;;;0.83;;
11006;SDS011;8186;57.652;11.968;2023-04-25T14:07:42;1.20;;;1.07;;
11006;SDS011;8186;57.652;11.968;2023-04-25T14:10:10;0.80;;;0.70;;
11006;SDS011;8186;57.652;11.968;2023-04-25T14:12:37;1.50;;;0.70;;
11006;SDS011;8186;57.652;11.968;2023-04-25T14:15:05;1.63;;;0.80;;
11006;SDS011;8186;57.652;11.968;2023-04-25T14:17:33;3.00;;;0.63;;
11006;SDS011;8186;57.652;11.968;2023-04-25T14:20:00;3.57;;;1.00;;
11006;SDS011;8186;57.652;11.968;2023-04-25T14:22:27;2.87;;;0.80;;
11006;SDS011;8186;57.652;11.968;2023-04-25T14:24:53;1.67;;;0.60;;
11006;SDS011;8186;57.652;11.968;2023-04-25T14:27:20;0.87;;;0.60;;
11006;SDS011;8186;57.652;11.968;2023-04-25T14:29:47;1.37;;;0.80;;
11006;SDS011;8186;57.652;11.968;2023-04-25T14:32:16;0.90;;;0.60;;
11006;SDS011;8186;57.652;11.968;2023-04-25T14:34:43;1.27;;;0.70;;
11006;SDS011;8186;57.652;11.968;2023-04-25T14:37:10;0.77;;;0.70;;
11006;SDS011;8186;57.652;11.968;2023-04-25T14:39:37;2.30;;;0.70;;
11006;SDS011;8186;57.652;11.968;2023-04-25T14:42:04;1.90;;;0.60;;
11006;SDS011;8186;57.652;11.968;2023-04-25T14:44:31;1.10;;;0.70;;
11006;SDS011;8186;57.652;11.968;2023-04-25T14:46:58;2.07;;;0.83;;